Time;durP1;ratioP1;P1;durP2;ratioP2;P2;SDS_P1;SDS_P2;PMS_P1;PMS_P2;Temp;Humidity;BMP_temperature;BMP_pressure;BME280_temperature;BME280_humidity;BME280_pressure;Samples;Min_cycle;Max_cycle;Signal;HPM_P1;HPM_P2
2024/05/07 00:01:18;;;;;;;3.95;1.98;;;17.10;5.00;;;;;;5416422;26;20314;-73
2024/05/07 00:03:44;;;;;;;6.00;2.40;;;17.30;5.00;;;;;;5447989;26;20749;-75
2024/05/07 00:06:10;;;;;;;2.17;2.08;;;17.10;5.00;;;;;;5447836;26;20226;-75
2024/05/07 00:08:36;;;;;;;2.72;2.28;;;17.00;5.00;;;;;;5446843;26;20312;-75
2024/05/07 00:11:02;;;;;;;3.67;2.38;;;17.00;5.00;;;;;;5447869;26;20229;-74
2024/05/07 00:13:27;;;;;;;2.08;1.95;;;16.90;5.00;;;;;;5448152;26;20241;-75
2024/05/07 00:15:53;;;;;;;2.20;2.10;;;16.90;5.00;;;;;;5447612;26;20221;-74
2024/05/07 00:18:18;;;;;;;2.30;2.10;;;16.90;5.00;;;;;;5447893;26;20218;-73
2024/05/07 00:20:44;;;;;;;4.53;2.50;;;16.90;5.00;;;;;;5447785;26;21179;-74
2024/05/07 00:23:10;;;;;;;3.83;2.25;;;16.90;5.00;;;;;;5447585;26;20705;-75
2024/05/07 00:25:42;;;;;;;3.00;2.30;;;16.90;5.00;;;;;;5447422;26;20229;-75
2024/05/07 00:28:11;;;;;;;2.00;1.90;;;16.90;5.00;;;;;;5448568;26;20256;-73
2024/05/07 00:30:36;;;;;;;2.22;1.85;;;16.90;5.00;;;;;;5447646;26;20757;-74
2024/05/07 00:33:02;;;;;;;5.20;2.30;;;16.90;5.00;;;;;;5415878;26;20242;-73
2024/05/07 00:35:28;;;;;;;2.13;2.03;;;16.80;5.00;;;;;;5447620;26;20222;-74
2024/05/07 00:37:53;;;;;;;2.45;2.25;;;16.80;5.00;;;;;;5447827;26;20233;-75
2024/05/07 00:40:19;;;;;;;2.13;1.90;;;16.90;5.00;;;;;;5447336;26;20242;-74
2024/05/07 00:42:53;;;;;;;3.60;2.13;;;16.90;5.00;;;;;;5447878;26;20315;-73
2024/05/07 00:45:18;;;;;;;3.63;2.28;;;16.80;5.00;;;;;;5447593;26;20356;-75
2024/05/07 00:47:44;;;;;;;2.50;2.30;;;16.80;5.00;;;;;;5447007;26;20242;-74
2024/05/07 00:50:12;;;;;;;2.00;1.90;;;16.80;5.00;;;;;;5447317;26;20240;-74
2024/05/07 00:52:38;;;;;;;2.70;2.15;;;16.80;5.00;;;;;;5447520;26;20238;-74
2024/05/07 00:55:04;;;;;;;2.45;2.28;;;16.80;5.00;;;;;;5447454;26;21018;-74
2024/05/07 00:57:32;;;;;;;2.45;2.20;;;16.80;5.00;;;;;;5447522;26;20217;-74
2024/05/07 00:59:57;;;;;;;3.47;2.40;;;16.80;5.00;;;;;;5447251;26;20301;-74
2024/05/07 01:02:23;;;;;;;2.60;2.40;;;16.70;5.00;;;;;;5447271;26;20238;-76
2024/05/07 01:04:49;;;;;;;2.33;2.13;;;16.70;5.00;;;;;;5446905;26;20307;-74
2024/05/07 01:07:14;;;;;;;3.08;2.30;;;16.90;5.00;;;;;;5446733;26;20314;-75
2024/05/07 01:09:40;;;;;;;2.15;2.00;;;16.60;5.00;;;;;;5447323;26;20225;-73
2024/05/07 01:12:06;;;;;;;4.18;2.22;;;16.80;5.00;;;;;;5446934;26;20280;-76
2024/05/07 01:14:33;;;;;;;2.72;2.20;;;16.50;5.00;;;;;;5447101;26;20233;-75
2024/05/07 01:16:59;;;;;;;2.58;2.28;;;16.50;5.00;;;;;;5446454;26;20265;-75
2024/05/07 01:19:25;;;;;;;4.32;2.40;;;16.60;5.00;;;;;;5446092;26;21052;-77
2024/05/07 01:21:53;;;;;;;2.60;2.38;;;16.50;5.00;;;;;;5449906;26;20238;-76
2024/05/07 01:24:18;;;;;;;2.78;2.40;;;16.40;5.00;;;;;;5450632;26;20569;-74
2024/05/07 01:26:44;;;;;;;2.70;2.50;;;16.40;5.00;;;;;;5450047;26;20338;-74
2024/05/07 01:29:10;;;;;;;3.42;2.45;;;16.30;5.00;;;;;;5450115;26;20230;-75
2024/05/07 01:31:35;;;;;;;3.70;2.45;;;16.40;5.00;;;;;;5450299;26;20298;-75
2024/05/07 01:34:01;;;;;;;2.55;2.33;;;16.30;5.00;;;;;;5450435;26;20639;-74
2024/05/07 01:36:26;;;;;;;3.10;2.80;;;16.30;5.00;;;;;;5449834;26;20225;-73
2024/05/07 01:38:52;;;;;;;2.20;2.10;;;16.30;5.00;;;;;;5418695;26;20234;-73
2024/05/07 01:41:18;;;;;;;3.15;2.33;;;16.60;5.00;;;;;;5450453;26;20299;-73
2024/05/07 01:43:44;;;;;;;2.70;2.50;;;16.20;5.00;;;;;;5450250;26;20280;-73
2024/05/07 01:46:10;;;;;;;3.92;2.38;;;16.20;5.00;;;;;;5450101;26;20311;-74
2024/05/07 01:48:35;;;;;;;2.65;2.45;;;16.30;5.00;;;;;;5449521;26;20238;-74
2024/05/07 01:51:01;;;;;;;3.17;2.78;;;16.20;5.00;;;;;;5448831;26;20225;-73
2024/05/07 01:53:26;;;;;;;3.42;3.10;;;16.10;5.00;;;;;;5450439;26;20261;-72
2024/05/07 01:55:52;;;;;;;3.47;2.70;;;16.10;5.00;;;;;;5449969;26;20218;-73
2024/05/07 01:58:17;;;;;;;6.03;2.63;;;16.00;5.00;;;;;;5449203;26;20723;-72
2024/05/07 02:00:43;;;;;;;3.10;2.83;;;16.00;5.00;;;;;;5449976;26;20275;-73
2024/05/07 02:03:09;;;;;;;4.28;2.63;;;16.10;5.00;;;;;;5450155;26;20576;-73
2024/05/07 02:05:35;;;;;;;3.72;2.60;;;16.00;5.00;;;;;;5450181;26;20225;-74
2024/05/07 02:08:00;;;;;;;3.10;2.85;;;16.00;5.00;;;;;;5450023;26;20284;-73
2024/05/07 02:10:26;;;;;;;3.20;2.90;;;16.00;5.00;;;;;;5449991;26;20230;-73
2024/05/07 02:12:51;;;;;;;2.72;2.53;;;16.00;5.00;;;;;;5449721;26;20781;-73
2024/05/07 02:15:17;;;;;;;3.33;2.78;;;16.00;5.00;;;;;;5449652;26;20217;-72
2024/05/07 02:17:42;;;;;;;5.72;2.85;;;16.00;5.00;;;;;;5449352;26;20262;-74
2024/05/07 02:20:08;;;;;;;3.42;2.88;;;15.90;5.00;;;;;;5448801;26;20774;-73
2024/05/07 02:22:33;;;;;;;3.33;2.83;;;15.90;5.00;;;;;;5448939;26;20238;-73
2024/05/07 02:25:00;;;;;;;6.53;3.17;;;15.90;5.00;;;;;;5449100;26;20225;-72
2024/05/07 02:27:25;;;;;;;2.90;2.70;;;15.90;5.00;;;;;;5449555;26;20238;-74
2024/05/07 02:29:51;;;;;;;2.53;2.33;;;15.90;5.00;;;;;;5449566;26;20741;-72
2024/05/07 02:32:16;;;;;;;5.72;2.72;;;15.80;5.00;;;;;;5449258;26;20316;-73
2024/05/07 02:34:42;;;;;;;2.55;2.35;;;15.90;5.00;;;;;;5449907;26;20903;-72
2024/05/07 02:37:07;;;;;;;3.28;2.80;;;15.80;5.00;;;;;;5449355;26;20287;-73
2024/05/07 02:39:33;;;;;;;3.03;2.58;;;15.80;5.00;;;;;;5449080;26;20287;-74
2024/05/07 02:41:58;;;;;;;3.10;2.80;;;16.10;5.00;;;;;;5448189;26;20299;-75
2024/05/07 02:44:24;;;;;;;3.17;2.88;;;15.70;5.00;;;;;;5448145;26;20225;-76
2024/05/07 02:46:49;;;;;;;3.20;2.90;;;15.80;5.00;;;;;;5449086;26;20218;-75
2024/05/07 02:49:15;;;;;;;4.90;3.10;;;15.70;5.00;;;;;;5417541;26;20613;-76
2024/05/07 02:51:40;;;;;;;3.90;2.97;;;15.70;5.00;;;;;;5448687;26;20690;-74
2024/05/07 02:54:06;;;;;;;3.22;2.90;;;15.90;5.00;;;;;;5449087;26;20226;-74
2024/05/07 02:56:31;;;;;;;2.90;2.70;;;15.70;5.00;;;;;;5448899;26;20221;-74
2024/05/07 02:58:56;;;;;;;3.65;2.58;;;15.70;5.00;;;;;;5449226;26;20256;-72
2024/05/07 03:01:22;;;;;;;5.85;2.97;;;15.70;5.00;;;;;;5449262;26;20278;-74
2024/05/07 03:03:48;;;;;;;2.60;2.40;;;15.70;5.00;;;;;;5449121;26;20305;-74
2024/05/07 03:06:13;;;;;;;3.50;3.20;;;15.60;5.00;;;;;;5417143;26;20225;-73
2024/05/07 03:08:39;;;;;;;3.50;2.45;;;15.60;5.00;;;;;;5448840;26;20330;-73
2024/05/07 03:11:04;;;;;;;3.45;2.90;;;15.60;5.00;;;;;;5448157;26;20218;-75
2024/05/07 03:13:30;;;;;;;3.15;2.85;;;15.60;5.00;;;;;;5448571;26;20625;-75
2024/05/07 03:15:56;;;;;;;3.10;2.65;;;15.60;5.00;;;;;;5448356;26;20603;-72
2024/05/07 03:18:21;;;;;;;4.00;2.65;;;15.60;5.00;;;;;;5449181;26;20622;-74
2024/05/07 03:20:47;;;;;;;3.80;2.83;;;15.60;5.00;;;;;;5449056;26;20225;-72
2024/05/07 03:23:13;;;;;;;6.47;2.63;;;15.60;5.00;;;;;;5449064;26;20233;-74
2024/05/07 03:25:38;;;;;;;4.03;3.17;;;15.60;5.00;;;;;;5448521;26;20791;-75
2024/05/07 03:28:05;;;;;;;5.20;3.03;;;15.60;5.00;;;;;;5449082;26;20222;-75
2024/05/07 03:30:31;;;;;;;3.90;3.20;;;15.60;5.00;;;;;;5448693;26;20256;-73
2024/05/07 03:32:56;;;;;;;5.75;3.20;;;15.60;5.00;;;;;;5448869;26;20238;-75
2024/05/07 03:35:24;;;;;;;3.72;3.15;;;15.60;5.00;;;;;;5449029;26;20264;-73
2024/05/07 03:37:52;;;;;;;6.03;3.35;;;15.60;5.00;;;;;;5448894;26;20229;-72
2024/05/07 03:40:19;;;;;;;3.47;3.05;;;15.50;5.00;;;;;;5448708;26;20225;-74
2024/05/07 03:42:48;;;;;;;3.15;2.85;;;15.50;5.00;;;;;;5447782;26;20718;-72
2024/05/07 03:45:14;;;;;;;5.18;3.22;;;15.50;5.00;;;;;;5448677;26;20279;-74
2024/05/07 03:47:40;;;;;;;6.30;3.05;;;15.80;5.00;;;;;;5447739;26;20561;-74
2024/05/07 03:50:05;;;;;;;3.60;2.88;;;15.50;5.00;;;;;;5447878;26;20260;-73
2024/05/07 03:52:31;;;;;;;2.67;2.47;;;15.40;5.00;;;;;;5448355;26;20290;-75
2024/05/07 03:54:56;;;;;;;2.70;2.50;;;15.40;5.00;;;;;;5448702;26;20722;-72
2024/05/07 03:57:22;;;;;;;3.05;2.75;;;15.30;5.00;;;;;;5448417;26;20315;-72
2024/05/07 03:59:48;;;;;;;3.88;3.13;;;15.30;5.00;;;;;;5448116;26;20668;-74
2024/05/07 04:02:14;;;;;;;3.28;3.08;;;15.30;5.00;;;;;;5448050;26;20730;-73
2024/05/07 04:04:39;;;;;;;4.60;3.10;;;15.30;5.00;;;;;;5447993;26;20222;-74
2024/05/07 04:07:05;;;;;;;3.10;2.80;;;15.20;5.00;;;;;;5448394;26;20257;-73
2024/05/07 04:09:30;;;;;;;3.15;2.80;;;15.30;5.00;;;;;;5447737;26;20726;-74
2024/05/07 04:11:56;;;;;;;4.53;2.97;;;15.20;5.00;;;;;;5448179;26;20337;-73
2024/05/07 04:14:22;;;;;;;4.05;2.90;;;15.20;5.00;;;;;;5448081;26;20588;-74
2024/05/07 04:16:47;;;;;;;4.60;3.22;;;15.20;5.00;;;;;;5448342;26;20618;-74
2024/05/07 04:19:13;;;;;;;3.65;3.08;;;15.20;5.00;;;;;;5447866;26;20699;-73
2024/05/07 04:21:38;;;;;;;4.45;3.15;;;15.40;5.00;;;;;;5416673;26;20255;-73
2024/05/07 04:24:04;;;;;;;3.40;3.10;;;15.20;5.00;;;;;;5447452;26;20237;-75
2024/05/07 04:26:30;;;;;;;3.22;3.03;;;15.20;5.00;;;;;;5447774;26;20221;-73
2024/05/07 04:28:55;;;;;;;3.47;3.05;;;15.10;5.00;;;;;;5447849;26;20233;-74
2024/05/07 04:31:21;;;;;;;7.38;3.35;;;15.20;5.00;;;;;;5447972;26;20579;-73
2024/05/07 04:33:48;;;;;;;3.78;2.60;;;15.10;5.00;;;;;;5448226;26;20238;-73
2024/05/07 04:36:13;;;;;;;3.58;3.28;;;15.20;5.00;;;;;;5447565;26;20600;-74
2024/05/07 04:38:39;;;;;;;3.72;3.17;;;15.20;5.00;;;;;;5447666;26;20222;-74
2024/05/07 04:41:05;;;;;;;6.28;3.15;;;15.20;5.00;;;;;;5415999;26;20326;-73
2024/05/07 04:43:32;;;;;;;10.15;3.17;;;15.20;5.00;;;;;;5447495;26;20234;-74
2024/05/07 04:46:00;;;;;;;5.88;2.83;;;15.40;5.00;;;;;;5447139;26;20686;-74
2024/05/07 04:48:26;;;;;;;3.60;3.30;;;15.20;5.00;;;;;;5450407;26;20260;-74
2024/05/07 04:50:51;;;;;;;4.70;3.08;;;15.20;5.00;;;;;;5447960;26;20454;-73
2024/05/07 04:53:17;;;;;;;3.40;2.85;;;15.20;5.00;;;;;;5446240;26;20840;-73
2024/05/07 04:55:43;;;;;;;8.20;3.67;;;15.20;5.00;;;;;;5450192;26;20225;-73
2024/05/07 04:58:18;;;;;;;3.33;3.03;;;15.10;5.00;;;;;;5450239;26;20265;-74
2024/05/07 05:00:44;;;;;;;3.72;3.05;;;15.20;5.00;;;;;;5450235;26;20330;-75
2024/05/07 05:03:12;;;;;;;3.20;2.90;;;15.20;5.00;;;;;;5450957;26;20276;-72
2024/05/07 05:05:38;;;;;;;3.47;3.17;;;15.20;5.00;;;;;;5419195;26;20253;-72
2024/05/07 05:08:04;;;;;;;4.78;3.05;;;15.20;5.00;;;;;;5450353;26;20237;-73
2024/05/07 05:10:30;;;;;;;3.17;2.88;;;15.20;5.00;;;;;;5419141;26;20226;-74
2024/05/07 05:12:55;;;;;;;5.45;3.25;;;15.20;5.00;;;;;;5450757;26;20334;-73
2024/05/07 05:15:20;;;;;;;6.07;3.28;;;15.30;5.00;;;;;;5449126;26;20385;-75
2024/05/07 05:17:48;;;;;;;5.00;3.55;;;15.40;5.00;;;;;;5449449;26;20226;-73
2024/05/07 05:20:13;;;;;;;4.25;3.85;;;15.30;5.00;;;;;;5450248;26;20217;-74
2024/05/07 05:22:40;;;;;;;4.75;3.70;;;15.30;5.00;;;;;;5450338;26;20229;-74
2024/05/07 05:25:05;;;;;;;6.32;3.22;;;15.60;5.00;;;;;;5450594;26;20238;-74
2024/05/07 05:27:31;;;;;;;5.00;3.60;;;15.40;5.00;;;;;;5450221;26;20225;-73
2024/05/07 05:29:56;;;;;;;3.83;3.50;;;15.40;5.00;;;;;;5450747;26;20301;-72
2024/05/07 05:32:22;;;;;;;4.05;3.58;;;15.40;5.00;;;;;;5450504;26;20237;-74
2024/05/07 05:34:47;;;;;;;5.90;3.72;;;15.50;5.00;;;;;;5450491;26;20233;-73
2024/05/07 05:37:13;;;;;;;4.30;3.60;;;15.50;5.00;;;;;;5449981;26;20222;-73
2024/05/07 05:39:38;;;;;;;4.03;3.58;;;15.50;5.00;;;;;;5449935;26;20230;-75
2024/05/07 05:42:04;;;;;;;5.53;3.70;;;15.50;5.00;;;;;;5450645;26;20770;-75
2024/05/07 05:44:29;;;;;;;4.78;4.05;;;15.50;5.00;;;;;;5450560;26;20222;-73
2024/05/07 05:46:55;;;;;;;4.28;3.53;;;15.60;5.00;;;;;;5449875;26;20694;-75
2024/05/07 05:49:22;;;;;;;5.75;3.63;;;15.60;5.00;;;;;;5433817;26;20933;-74
2024/05/07 05:51:50;;;;;;;5.43;3.60;;;15.40;5.00;;;;;;5429448;26;20917;-74
2024/05/07 05:54:16;;;;;;;3.88;3.47;;;15.40;5.00;;;;;;5432319;26;20230;-76
2024/05/07 05:56:41;;;;;;;5.68;3.50;;;15.40;5.00;;;;;;5431922;26;20284;-75
2024/05/07 05:59:08;;;;;;;4.00;3.63;;;15.30;5.00;;;;;;5429181;26;20634;-75
2024/05/07 06:01:33;;;;;;;3.70;3.40;;;15.30;5.00;;;;;;5432936;26;20280;-74
2024/05/07 06:03:59;;;;;;;4.25;3.85;;;15.30;5.00;;;;;;5431355;26;20298;-75
2024/05/07 06:06:24;;;;;;;4.15;3.67;;;15.30;5.00;;;;;;5443058;26;20280;-74
2024/05/07 06:08:50;;;;;;;9.65;4.03;;;15.30;5.00;;;;;;5412211;26;20243;-74
2024/05/07 06:11:15;;;;;;;5.82;3.78;;;15.40;5.00;;;;;;5430691;26;20252;-76
2024/05/07 06:13:41;;;;;;;5.15;3.90;;;15.40;5.00;;;;;;5430931;26;20320;-74
2024/05/07 06:16:07;;;;;;;6.03;4.00;;;15.30;5.00;;;;;;5429064;26;20287;-74
2024/05/07 06:18:32;;;;;;;5.63;3.90;;;15.30;5.00;;;;;;5433335;26;20229;-74
2024/05/07 06:20:58;;;;;;;4.53;3.95;;;15.30;5.00;;;;;;5430974;26;20269;-75
2024/05/07 06:23:23;;;;;;;4.88;4.10;;;15.40;5.00;;;;;;5439400;26;20731;-75
2024/05/07 06:25:49;;;;;;;4.03;3.63;;;15.30;5.00;;;;;;5449099;26;20252;-74
2024/05/07 06:28:16;;;;;;;8.65;3.90;;;15.30;5.00;;;;;;5434097;26;20239;-74
2024/05/07 06:30:43;;;;;;;4.90;4.10;;;15.50;5.00;;;;;;5430686;26;20222;-74
2024/05/07 06:33:08;;;;;;;7.78;3.80;;;15.50;5.00;;;;;;5432622;26;20611;-75
2024/05/07 06:35:34;;;;;;;4.13;3.72;;;15.40;5.00;;;;;;5429197;26;20231;-75
2024/05/07 06:38:02;;;;;;;4.13;3.80;;;15.60;5.00;;;;;;5434228;26;20565;-74
2024/05/07 06:40:27;;;;;;;4.88;3.97;;;15.50;5.00;;;;;;5449207;26;20222;-74
2024/05/07 06:42:53;;;;;;;5.72;3.67;;;15.60;5.00;;;;;;5449382;26;20353;-75
2024/05/07 06:45:20;;;;;;;4.90;3.78;;;15.60;5.00;;;;;;5449193;26;20252;-75
2024/05/07 06:47:46;;;;;;;5.30;3.72;;;15.70;5.00;;;;;;5449176;26;20217;-75
2024/05/07 06:50:11;;;;;;;6.68;3.67;;;15.60;5.00;;;;;;5449631;26;20264;-73
2024/05/07 06:52:37;;;;;;;4.55;3.92;;;15.70;5.00;;;;;;5449470;26;20278;-74
2024/05/07 06:55:02;;;;;;;8.38;3.95;;;15.80;5.00;;;;;;5417747;26;20561;-73
2024/05/07 06:57:28;;;;;;;6.15;4.22;;;15.90;5.00;;;;;;5448883;26;20223;-72
2024/05/07 06:59:53;;;;;;;4.53;3.88;;;16.00;5.00;;;;;;5447174;26;20337;-74
2024/05/07 07:02:19;;;;;;;7.28;4.50;;;16.10;5.00;;;;;;5417193;26;20610;-73
2024/05/07 07:04:44;;;;;;;5.38;3.30;;;16.30;5.00;;;;;;5448772;26;20709;-73
2024/05/07 07:07:12;;;;;;;7.47;3.97;;;16.20;5.00;;;;;;5448512;26;20338;-73
2024/05/07 07:09:37;;;;;;;4.28;3.33;;;16.30;5.00;;;;;;5448940;26;20264;-73
2024/05/07 07:12:03;;;;;;;6.03;3.38;;;16.30;5.00;;;;;;5448976;26;20231;-74
2024/05/07 07:14:29;;;;;;;7.60;3.97;;;16.40;5.00;;;;;;5448777;26;20329;-74
2024/05/07 07:16:59;;;;;;;4.70;3.28;;;16.40;5.00;;;;;;5448804;26;20222;-73
2024/05/07 07:19:28;;;;;;;4.60;3.20;;;16.50;5.00;;;;;;5447951;26;20221;-73
2024/05/07 07:21:57;;;;;;;5.50;3.65;;;16.50;5.00;;;;;;5448848;26;20313;-74
2024/05/07 07:24:25;;;;;;;5.43;3.05;;;16.50;5.00;;;;;;5448733;26;20285;-74
2024/05/07 07:26:50;;;;;;;4.53;3.33;;;16.60;5.00;;;;;;5448611;26;20309;-73
2024/05/07 07:29:16;;;;;;;4.85;3.10;;;16.60;5.00;;;;;;5448890;26;20225;-73
2024/05/07 07:31:41;;;;;;;5.53;3.20;;;16.60;5.00;;;;;;5417170;26;20361;-73
2024/05/07 07:34:07;;;;;;;4.68;3.10;;;16.70;5.00;;;;;;5449136;26;20342;-74
2024/05/07 07:36:33;;;;;;;5.65;3.67;;;16.70;5.00;;;;;;5448418;26;20225;-74
2024/05/07 07:38:58;;;;;;;3.88;3.30;;;16.70;5.00;;;;;;5448597;26;20218;-73
2024/05/07 07:41:27;;;;;;;9.20;3.45;;;16.70;5.00;;;;;;5448392;26;20231;-74
2024/05/07 07:43:55;;;;;;;6.05;3.30;;;16.60;5.00;;;;;;5448813;26;20305;-73
2024/05/07 07:46:22;;;;;;;7.00;3.15;;;16.70;5.00;;;;;;5448392;26;20222;-74
2024/05/07 07:48:47;;;;;;;5.20;3.08;;;16.70;5.00;;;;;;5449027;26;20221;-74
2024/05/07 07:51:13;;;;;;;6.28;3.22;;;16.70;5.00;;;;;;5448023;26;20280;-73
2024/05/07 07:53:38;;;;;;;4.38;3.20;;;16.70;5.00;;;;;;5448009;26;20276;-75
2024/05/07 07:56:04;;;;;;;4.90;3.75;;;16.90;5.00;;;;;;5448486;26;20221;-74
2024/05/07 07:58:30;;;;;;;5.93;3.40;;;16.90;5.00;;;;;;5416924;26;20265;-74
2024/05/07 08:00:55;;;;;;;4.53;3.42;;;17.00;5.00;;;;;;5448113;26;20221;-74
2024/05/07 08:03:20;;;;;;;3.45;3.00;;;17.10;5.00;;;;;;5448189;26;20238;-75
2024/05/07 08:05:46;;;;;;;5.00;3.17;;;17.00;5.00;;;;;;5448151;26;20222;-74
2024/05/07 08:08:12;;;;;;;4.85;3.17;;;17.10;5.00;;;;;;5448206;26;20270;-73
2024/05/07 08:10:38;;;;;;;4.82;3.22;;;17.10;5.00;;;;;;5448346;26;20273;-73
2024/05/07 08:13:04;;;;;;;5.45;3.13;;;17.20;5.00;;;;;;5448388;26;20342;-74
2024/05/07 08:15:29;;;;;;;5.32;3.15;;;17.20;5.00;;;;;;5447702;26;20604;-73
2024/05/07 08:17:55;;;;;;;6.70;3.03;;;17.40;5.00;;;;;;5447963;26;20591;-74
2024/05/07 08:20:20;;;;;;;4.38;2.72;;;17.40;5.00;;;;;;5447714;26;20272;-73
2024/05/07 08:22:45;;;;;;;7.18;3.25;;;17.70;5.00;;;;;;5448021;26;20722;-72
2024/05/07 08:25:11;;;;;;;4.78;3.00;;;17.60;5.00;;;;;;5448069;26;20225;-74
2024/05/07 08:27:36;;;;;;;4.18;2.97;;;17.70;5.00;;;;;;5447648;26;20397;-74
2024/05/07 08:30:03;;;;;;;6.07;3.42;;;17.80;5.00;;;;;;5447330;26;21148;-74
2024/05/07 08:32:31;;;;;;;3.53;3.20;;;17.90;5.00;;;;;;5447928;26;20241;-74
2024/05/07 08:34:57;;;;;;;3.10;2.80;;;17.90;5.00;;;;;;5447768;26;20599;-74
2024/05/07 08:37:24;;;;;;;6.35;2.90;;;17.90;5.00;;;;;;5447721;26;20214;-73
2024/05/07 08:39:51;;;;;;;6.43;3.47;;;17.90;5.00;;;;;;5447667;26;20221;-73
2024/05/07 08:42:20;;;;;;;5.38;2.28;;;17.90;5.00;;;;;;5447609;26;20280;-73
2024/05/07 08:44:46;;;;;;;3.70;2.67;;;18.00;5.00;;;;;;5447635;26;20229;-73
2024/05/07 08:47:12;;;;;;;4.70;2.65;;;18.00;5.00;;;;;;5447563;26;20322;-74
2024/05/07 08:49:38;;;;;;;6.43;3.20;;;17.90;5.00;;;;;;5447630;26;20230;-74
2024/05/07 08:52:05;;;;;;;3.85;2.65;;;18.00;5.00;;;;;;5447342;26;20304;-72
2024/05/07 08:54:32;;;;;;;5.05;3.15;;;18.00;5.00;;;;;;5447450;26;20303;-73
2024/05/07 08:56:57;;;;;;;5.45;2.88;;;18.10;5.00;;;;;;5446897;26;20268;-73
2024/05/07 08:59:26;;;;;;;2.65;2.45;;;18.10;5.00;;;;;;5447054;26;20226;-74
2024/05/07 09:01:51;;;;;;;4.68;3.42;;;18.20;5.00;;;;;;5447626;26;20748;-73
2024/05/07 09:04:19;;;;;;;5.85;3.55;;;18.30;5.00;;;;;;5447308;26;20218;-74
2024/05/07 09:06:52;;;;;;;3.15;2.78;;;18.40;5.00;;;;;;5446762;26;20717;-73
2024/05/07 09:09:19;;;;;;;4.45;3.45;;;18.60;5.00;;;;;;5446984;26;20229;-74
2024/05/07 09:11:58;;;;;;;7.55;3.05;;;18.70;5.00;;;;;;5415446;26;20356;-73
2024/05/07 09:14:24;;;;;;;6.40;3.65;;;18.80;5.00;;;;;;5447270;26;20259;-74
2024/05/07 09:16:50;;;;;;;7.57;2.70;;;18.80;5.00;;;;;;5447041;26;20291;-74
2024/05/07 09:19:16;;;;;;;3.40;2.70;;;18.70;5.00;;;;;;5439461;26;20399;-73
2024/05/07 09:21:42;;;;;;;4.70;3.30;;;18.70;5.00;;;;;;5439444;26;20737;-72
2024/05/07 09:24:08;;;;;;;4.07;3.17;;;18.60;5.00;;;;;;5448066;21;20274;-68
2024/05/07 09:26:46;;;;;;;3.20;2.70;;;18.50;5.00;;;;;;4631406;26;9999913;-69
2024/05/07 09:29:13;;;;;;;3.20;2.67;;;18.50;5.00;;;;;;5375167;26;20240;-69
2024/05/07 09:31:42;;;;;;;3.78;2.35;;;18.30;5.00;;;;;;5376082;26;20228;-69
2024/05/07 09:34:12;;;;;;;4.18;2.60;;;18.30;5.00;;;;;;5380645;26;20231;-70
2024/05/07 09:36:50;;;;;;;2.80;2.58;;;18.20;5.00;;;;;;5410500;26;20349;-69
2024/05/07 09:39:21;;;;;;;4.82;2.38;;;18.20;5.00;;;;;;5396279;26;20227;-69
2024/05/07 09:42:16;;;;;;;5.75;3.55;;;18.20;5.00;;;;;;5413922;26;20231;-69
2024/05/07 09:44:52;;;;;;;5.28;3.28;;;18.20;5.00;;;;;;5410625;26;20243;-69
2024/05/07 09:47:19;;;;;;;4.57;3.22;;;18.30;5.00;;;;;;5414740;26;20222;-69
2024/05/07 09:49:47;;;;;;;5.80;3.50;;;18.40;5.00;;;;;;5414409;26;20269;-69
2024/05/07 09:52:14;;;;;;;3.78;3.30;;;18.40;5.00;;;;;;5414461;26;20304;-67
2024/05/07 09:54:45;;;;;;;7.40;3.88;;;18.40;5.00;;;;;;5414681;26;20269;-69
2024/05/07 09:57:12;;;;;;;4.10;3.70;;;18.40;5.00;;;;;;5414592;26;20219;-69
2024/05/07 09:59:38;;;;;;;4.53;4.13;;;18.30;5.00;;;;;;5413449;26;20575;-69
2024/05/07 10:02:04;;;;;;;6.07;4.13;;;18.20;5.00;;;;;;5368266;26;20238;-69
2024/05/07 10:04:30;;;;;;;4.93;3.90;;;18.20;5.00;;;;;;5413721;26;20278;-68
2024/05/07 10:06:56;;;;;;;4.45;3.70;;;18.20;5.00;;;;;;5413551;26;20226;-69
2024/05/07 10:09:22;;;;;;;6.50;4.72;;;18.10;5.00;;;;;;5368517;26;20257;-68
2024/05/07 10:11:48;;;;;;;4.97;3.65;;;18.00;5.00;;;;;;5414501;26;20583;-69
2024/05/07 10:14:14;;;;;;;9.55;4.57;;;18.00;5.00;;;;;;5398958;26;20238;-69
2024/05/07 10:16:44;;;;;;;5.00;4.10;;;18.00;5.00;;;;;;5382765;26;20249;-68
2024/05/07 10:19:11;;;;;;;4.38;3.13;;;18.00;5.00;;;;;;5414025;26;20219;-69
2024/05/07 10:21:47;;;;;;;4.25;3.28;;;18.10;5.00;;;;;;5414316;26;20323;-69
2024/05/07 10:24:17;;;;;;;5.43;3.88;;;18.10;5.00;;;;;;5413483;26;20722;-68
2024/05/07 10:26:45;;;;;;;3.78;3.25;;;18.20;5.00;;;;;;5382508;26;20558;-69
2024/05/07 10:29:13;;;;;;;5.53;3.78;;;18.30;5.00;;;;;;5413630;26;20231;-69
2024/05/07 10:31:39;;;;;;;4.43;3.85;;;18.40;5.00;;;;;;5414078;26;20239;-68
2024/05/07 10:34:05;;;;;;;5.40;3.63;;;18.50;5.00;;;;;;5367780;26;20239;-69
2024/05/07 10:36:32;;;;;;;12.25;5.00;;;18.60;5.00;;;;;;5368052;26;20271;-68
2024/05/07 10:38:58;;;;;;;6.07;4.82;;;18.50;5.00;;;;;;5413462;26;20294;-69
2024/05/07 10:41:26;;;;;;;6.45;3.78;;;18.60;5.00;;;;;;5412522;26;21036;-68
2024/05/07 10:43:51;;;;;;;5.20;3.83;;;18.60;5.00;;;;;;5412733;26;21134;-68
2024/05/07 10:46:24;;;;;;;8.23;4.00;;;18.80;5.00;;;;;;5359066;26;20277;-68
2024/05/07 10:48:56;;;;;;;6.00;4.50;;;18.80;5.00;;;;;;5376382;26;20731;-68
2024/05/07 10:51:25;;;;;;;8.45;3.63;;;18.80;5.00;;;;;;5378892;26;20743;-69
2024/05/07 10:53:52;;;;;;;6.68;3.42;;;18.80;5.00;;;;;;5379394;26;20719;-68
2024/05/07 10:56:19;;;;;;;3.60;3.30;;;18.80;5.00;;;;;;5380652;26;20281;-68
2024/05/07 10:58:46;;;;;;;3.97;3.58;;;18.80;5.00;;;;;;5365594;26;20239;-68
2024/05/07 11:01:14;;;;;;;9.10;3.97;;;18.80;5.00;;;;;;5380342;26;20279;-68
2024/05/07 11:03:41;;;;;;;4.65;3.88;;;18.90;5.00;;;;;;5379370;26;20292;-70
2024/05/07 11:06:07;;;;;;;4.38;3.72;;;18.70;5.00;;;;;;5376466;26;20232;-69
2024/05/07 11:08:39;;;;;;;5.38;4.18;;;18.50;5.00;;;;;;5379628;26;20271;-69
2024/05/07 11:11:13;;;;;;;4.15;3.60;;;18.40;5.00;;;;;;5380374;26;20338;-70
2024/05/07 11:13:39;;;;;;;7.57;4.82;;;18.20;5.00;;;;;;5381175;26;20278;-70
2024/05/07 11:16:05;;;;;;;6.88;4.78;;;18.20;5.00;;;;;;5380136;26;20232;-69
2024/05/07 11:18:31;;;;;;;6.47;4.60;;;18.00;5.00;;;;;;5366113;26;20232;-69
2024/05/07 11:21:06;;;;;;;4.80;4.20;;;17.90;5.00;;;;;;5347738;26;20293;-70
2024/05/07 11:23:32;;;;;;;7.45;5.63;;;17.90;5.00;;;;;;5379232;26;20561;-69
2024/05/07 11:26:00;;;;;;;9.57;6.07;;;17.90;5.00;;;;;;5371976;26;20763;-70
2024/05/07 11:28:26;;;;;;;8.30;6.05;;;17.90;5.00;;;;;;5347980;26;20243;-70
2024/05/07 11:30:52;;;;;;;8.15;5.45;;;17.90;5.00;;;;;;5378397;26;20223;-70
2024/05/07 11:33:19;;;;;;;5.72;5.07;;;17.90;5.00;;;;;;5397153;26;20223;-70
2024/05/07 11:35:45;;;;;;;9.40;5.28;;;17.80;5.00;;;;;;5412086;26;20231;-69
2024/05/07 11:38:11;;;;;;;12.95;5.50;;;17.90;5.00;;;;;;5413109;26;20940;-69
2024/05/07 11:40:36;;;;;;;11.05;4.88;;;17.90;5.00;;;;;;5397202;26;20223;-69
2024/05/07 11:43:02;;;;;;;6.43;4.40;;;17.90;5.00;;;;;;5411749;26;20231;-69
2024/05/07 11:45:31;;;;;;;7.43;4.78;;;17.90;5.00;;;;;;5412623;26;20327;-69
2024/05/07 11:47:57;;;;;;;6.55;4.97;;;17.80;5.00;;;;;;5381397;26;20230;-69
2024/05/07 11:50:26;;;;;;;7.70;5.03;;;17.70;5.00;;;;;;5381094;26;20277;-69
2024/05/07 11:52:52;;;;;;;7.38;4.32;;;17.70;5.00;;;;;;5412942;26;20283;-69
2024/05/07 11:55:17;;;;;;;8.60;4.70;;;17.60;5.00;;;;;;5412665;26;20234;-69
2024/05/07 11:57:43;;;;;;;7.05;4.93;;;17.60;5.00;;;;;;5412415;26;20242;-69
2024/05/07 12:00:09;;;;;;;5.47;4.22;;;17.60;5.00;;;;;;5412431;26;20272;-69
2024/05/07 12:02:35;;;;;;;4.50;3.65;;;17.60;5.00;;;;;;5412588;26;20263;-69
2024/05/07 12:05:01;;;;;;;5.57;4.32;;;17.60;5.00;;;;;;5379984;26;20628;-69
2024/05/07 12:07:26;;;;;;;6.30;4.10;;;17.70;5.00;;;;;;5412047;26;20231;-69
2024/05/07 12:09:52;;;;;;;5.10;3.90;;;17.80;5.00;;;;;;5411558;26;20273;-69
2024/05/07 12:12:18;;;;;;;7.20;4.20;;;17.80;5.00;;;;;;5366793;26;20320;-69
2024/05/07 12:14:44;;;;;;;5.15;3.15;;;17.80;5.00;;;;;;5397280;26;20298;-69
2024/05/07 12:17:10;;;;;;;4.68;3.72;;;17.90;5.00;;;;;;5380783;26;20231;-69
2024/05/07 12:19:35;;;;;;;4.97;4.05;;;17.80;5.00;;;;;;5380990;26;20283;-69
2024/05/07 12:27:30;;;;;;;3.78;3.35;;;17.90;5.00;;;;;;5411620;26;20351;-69
2024/05/07 12:29:55;;;;;;;4.47;3.38;;;17.90;5.00;;;;;;5381010;26;20239;-68
2024/05/07 12:32:20;;;;;;;3.58;3.28;;;18.00;5.00;;;;;;5390638;26;20679;-68
2024/05/07 12:34:46;;;;;;;3.40;2.95;;;17.90;5.00;;;;;;5374838;26;20271;-70
2024/05/07 12:37:12;;;;;;;3.28;2.55;;;18.00;5.00;;;;;;5407623;26;20231;-69
2024/05/07 12:39:37;;;;;;;4.30;2.92;;;17.90;5.00;;;;;;5385952;26;20280;-69
2024/05/07 12:42:06;;;;;;;3.92;2.75;;;17.90;5.00;;;;;;5411946;26;20281;-70
2024/05/07 12:44:33;;;;;;;2.70;2.50;;;17.90;5.00;;;;;;5411722;26;20349;-69
2024/05/07 12:46:59;;;;;;;4.07;2.72;;;17.90;5.00;;;;;;5410925;26;20226;-70
2024/05/07 12:49:24;;;;;;;2.58;2.35;;;17.80;5.00;;;;;;5396837;26;20637;-69
2024/05/07 12:51:50;;;;;;;2.67;2.47;;;17.80;5.00;;;;;;5411941;26;20235;-69
2024/05/07 12:54:15;;;;;;;3.92;2.80;;;17.70;5.00;;;;;;5380402;26;20251;-70
2024/05/07 12:56:41;;;;;;;2.78;2.47;;;17.80;5.00;;;;;;5410708;26;20343;-69
2024/05/07 12:59:06;;;;;;;3.15;2.70;;;17.80;5.00;;;;;;5379936;26;20238;-70